createdAt,value
2023-05-01T00:00:05.486Z,33.750000
2023-05-01T00:01:00.422Z,33.750000
2023-05-01T00:02:00.441Z,11.250000
2023-05-01T00:03:00.510Z,11.250000
2023-05-01T00:04:00.942Z,11.250000
2023-05-01T00:05:03.028Z,11.250000
2023-05-01T00:06:00.498Z,11.250000
2023-05-01T00:07:00.381Z,45.000000
2023-05-01T00:08:00.447Z,45.000000
2023-05-01T00:09:00.402Z,45.000000
2023-05-01T00:10:03.473Z,45.000000
2023-05-01T00:11:00.408Z,45.000000
2023-05-01T00:12:00.508Z,45.000000
2023-05-01T00:13:00.401Z,22.500000
2023-05-01T00:14:00.514Z,22.500000
2023-05-01T00:15:03.049Z,22.500000
2023-05-01T00:16:00.543Z,22.500000
2023-05-01T00:17:00.435Z,11.250000
2023-05-01T00:18:00.682Z,11.250000
2023-05-01T00:19:00.461Z,11.250000
2023-05-01T00:20:03.726Z,11.250000
2023-05-01T00:21:00.502Z,11.250000
2023-05-01T00:22:00.626Z,56.250000
2023-05-01T00:23:00.490Z,56.250000
2023-05-01T00:24:00.612Z,56.250000
2023-05-01T00:25:02.933Z,78.750000
2023-05-01T00:26:00.609Z,78.750000
2023-05-01T00:27:00.531Z,45.000000
2023-05-01T00:28:00.588Z,45.000000
2023-05-01T00:29:00.545Z,45.000000
2023-05-01T00:30:03.765Z,11.250000
2023-05-01T00:31:00.551Z,11.250000
2023-05-01T00:32:00.656Z,11.250000
2023-05-01T00:33:00.648Z,11.250000
2023-05-01T00:34:00.634Z,11.250000
2023-05-01T00:35:03.154Z,33.750000
2023-05-01T00:36:00.700Z,33.750000
2023-05-01T00:37:00.601Z,45.000000
2023-05-01T00:38:00.660Z,45.000000
2023-05-01T00:39:00.596Z,45.000000
2023-05-01T00:40:03.711Z,33.750000
2023-05-01T00:41:00.611Z,33.750000
2023-05-01T00:42:00.721Z,33.750000
2023-05-01T00:43:00.599Z,33.750000
2023-05-01T00:44:00.682Z,33.750000
2023-05-01T00:45:04.117Z,33.750000
2023-05-01T00:46:00.744Z,22.500000
2023-05-01T00:47:00.669Z,22.500000
2023-05-01T00:48:00.861Z,56.250000
2023-05-01T00:49:00.684Z,56.250000
2023-05-01T00:50:03.484Z,22.500000
2023-05-01T00:51:00.700Z,22.500000
2023-05-01T00:52:00.761Z,22.500000
2023-05-01T00:53:00.697Z,22.500000
2023-05-01T00:54:00.813Z,22.500000
2023-05-01T00:55:03.411Z,22.500000
2023-05-01T00:56:00.764Z,22.500000
2023-05-01T00:57:00.727Z,22.500000
2023-05-01T00:58:00.820Z,33.750000
2023-05-01T00:59:00.720Z,33.750000
2023-05-01T01:00:03.897Z,45.000000
2023-05-01T01:01:00.817Z,45.000000
2023-05-01T01:02:00.872Z,45.000000
2023-05-01T01:03:00.886Z,22.500000
2023-05-01T01:04:00.917Z,22.500000
2023-05-01T01:05:03.168Z,22.500000
2023-05-01T01:06:00.928Z,33.750000
2023-05-01T01:07:00.816Z,33.750000
2023-05-01T01:08:00.883Z,33.750000
2023-05-01T01:09:00.814Z,45.000000
2023-05-01T01:10:04.440Z,45.000000
2023-05-01T01:11:00.861Z,33.750000
2023-05-01T01:12:00.941Z,33.750000
2023-05-01T01:13:00.847Z,33.750000
2023-05-01T01:14:00.917Z,33.750000
2023-05-01T01:15:03.342Z,33.750000
2023-05-01T01:16:00.981Z,0.000000
2023-05-01T01:17:00.960Z,0.000000
2023-05-01T01:18:01.023Z,0.000000
2023-05-01T01:19:00.886Z,78.750000
2023-05-01T01:20:03.866Z,78.750000
2023-05-01T01:21:00.929Z,45.000000
2023-05-01T01:22:01.002Z,45.000000
2023-05-01T01:23:00.905Z,45.000000
2023-05-01T01:24:01.007Z,45.000000
2023-05-01T01:25:03.406Z,45.000000
2023-05-01T01:26:04.142Z,11.250000
2023-05-01T01:27:00.957Z,11.250000
2023-05-01T01:28:01.029Z,11.250000
2023-05-01T01:29:00.947Z,33.750000
2023-05-01T01:30:06.088Z,33.750000
2023-05-01T01:31:01.016Z,33.750000
2023-05-01T01:32:01.027Z,33.750000
2023-05-01T01:33:01.035Z,33.750000
2023-05-01T01:34:01.124Z,22.500000
2023-05-01T01:35:03.407Z,22.500000
2023-05-01T01:36:01.067Z,11.250000
2023-05-01T01:37:00.989Z,11.250000
2023-05-01T01:38:01.094Z,11.250000
2023-05-01T01:39:01.009Z,11.250000
2023-05-01T01:40:04.793Z,11.250000
2023-05-01T01:41:01.030Z,22.500000
2023-05-01T01:42:01.136Z,22.500000
2023-05-01T01:43:01.009Z,22.500000
2023-05-01T01:44:01.092Z,22.500000
2023-05-01T01:45:03.533Z,22.500000
2023-05-01T01:46:01.201Z,22.500000
2023-05-01T01:47:01.042Z,22.500000
2023-05-01T01:48:01.132Z,22.500000
2023-05-01T01:49:01.052Z,11.250000
2023-05-01T01:50:04.249Z,11.250000
2023-05-01T01:51:01.090Z,11.250000
2023-05-01T01:52:01.166Z,11.250000
2023-05-01T01:53:01.065Z,11.250000
2023-05-01T01:54:01.169Z,0.000000
2023-05-01T01:55:03.468Z,0.000000
2023-05-01T01:56:04.720Z,11.250000
2023-05-01T01:57:01.102Z,11.250000
2023-05-01T01:58:01.186Z,11.250000
2023-05-01T01:59:01.093Z,11.250000
2023-05-01T02:00:04.335Z,11.250000
2023-05-01T02:01:01.147Z,11.250000
2023-05-01T02:02:01.250Z,11.250000
2023-05-01T02:03:01.336Z,11.250000
2023-05-01T02:04:01.373Z,11.250000
2023-05-01T02:05:03.819Z,11.250000
2023-05-01T02:06:01.328Z,11.250000
2023-05-01T02:07:01.160Z,11.250000
2023-05-01T02:08:00.256Z,11.250000
2023-05-01T02:09:00.193Z,11.250000
2023-05-01T02:10:03.171Z,11.250000
2023-05-01T02:11:02.053Z,11.250000
2023-05-01T02:12:00.282Z,11.250000
2023-05-01T02:13:00.206Z,11.250000
2023-05-01T02:14:01.355Z,11.250000
2023-05-01T02:15:02.816Z,11.250000
2023-05-01T02:16:00.416Z,11.250000
2023-05-01T02:17:00.224Z,11.250000
2023-05-01T02:18:00.647Z,11.250000
2023-05-01T02:19:00.248Z,11.250000
2023-05-01T02:20:04.789Z,11.250000
2023-05-01T02:21:00.348Z,33.750000
2023-05-01T02:22:00.666Z,33.750000
2023-05-01T02:23:00.266Z,33.750000
2023-05-01T02:24:00.345Z,22.500000
2023-05-01T02:25:02.640Z,22.500000
2023-05-01T02:26:00.643Z,22.500000
2023-05-01T02:27:00.292Z,11.250000
2023-05-01T02:28:00.380Z,11.250000
2023-05-01T02:29:00.285Z,11.250000
2023-05-01T02:30:03.308Z,11.250000
2023-05-01T02:31:00.335Z,11.250000
2023-05-01T02:32:00.529Z,11.250000
2023-05-01T02:33:00.421Z,11.250000
2023-05-01T02:34:00.661Z,11.250000
2023-05-01T02:35:05.151Z,11.250000
2023-05-01T02:36:00.420Z,11.250000
2023-05-01T02:37:00.331Z,11.250000
2023-05-01T02:38:00.444Z,11.250000
2023-05-01T02:39:00.383Z,11.250000
2023-05-01T02:40:03.483Z,11.250000
2023-05-01T02:41:00.379Z,11.250000
2023-05-01T02:42:00.464Z,11.250000
2023-05-01T02:43:00.384Z,11.250000
2023-05-01T02:44:00.492Z,11.250000
2023-05-01T02:45:03.109Z,11.250000
2023-05-01T02:46:00.518Z,11.250000
2023-05-01T02:47:00.444Z,11.250000
2023-05-01T02:48:00.663Z,11.250000
2023-05-01T02:49:00.424Z,11.250000
2023-05-01T02:50:04.127Z,11.250000
2023-05-01T02:51:00.442Z,11.250000
2023-05-01T02:52:00.648Z,22.500000
2023-05-01T02:53:00.465Z,22.500000
2023-05-01T02:54:00.559Z,11.250000
2023-05-01T02:55:02.829Z,11.250000
2023-05-01T02:56:00.641Z,11.250000
2023-05-01T02:57:00.470Z,11.250000
2023-05-01T02:58:00.590Z,11.250000
2023-05-01T02:59:00.502Z,11.250000
2023-05-01T03:00:03.464Z,11.250000
2023-05-01T03:01:00.580Z,11.250000
2023-05-01T03:02:00.603Z,11.250000
2023-05-01T03:03:00.574Z,11.250000
2023-05-01T03:04:00.746Z,22.500000
2023-05-01T03:05:02.979Z,22.500000
2023-05-01T03:06:00.666Z,22.500000
2023-05-01T03:07:00.558Z,22.500000
2023-05-01T03:08:00.654Z,22.500000
2023-05-01T03:09:00.580Z,22.500000
2023-05-01T03:10:03.826Z,11.250000
2023-05-01T03:11:00.582Z,11.250000
2023-05-01T03:12:00.679Z,11.250000
2023-05-01T03:13:00.613Z,11.250000
2023-05-01T03:14:00.666Z,11.250000
2023-05-01T03:15:03.845Z,11.250000
2023-05-01T03:16:00.797Z,11.250000
2023-05-01T03:17:00.626Z,11.250000
2023-05-01T03:18:00.748Z,11.250000
2023-05-01T03:19:00.642Z,11.250000
2023-05-01T03:20:03.600Z,11.250000
2023-05-01T03:21:00.658Z,11.250000
2023-05-01T03:22:00.727Z,11.250000
2023-05-01T03:23:00.654Z,11.250000
2023-05-01T03:24:00.746Z,11.250000
2023-05-01T03:25:03.241Z,11.250000
2023-05-01T03:26:03.911Z,11.250000
2023-05-01T03:27:00.716Z,11.250000
2023-05-01T03:28:00.786Z,11.250000
2023-05-01T03:29:00.696Z,11.250000
2023-05-01T03:30:04.800Z,11.250000
2023-05-01T03:31:00.728Z,11.250000
2023-05-01T03:32:00.847Z,11.250000
2023-05-01T03:33:00.860Z,11.250000
2023-05-01T03:34:00.877Z,11.250000
2023-05-01T03:35:03.391Z,22.500000
2023-05-01T03:36:00.861Z,22.500000
2023-05-01T03:37:00.780Z,22.500000
2023-05-01T03:38:00.841Z,22.500000
2023-05-01T03:39:00.816Z,22.500000
2023-05-01T03:40:20.063Z,22.500000
2023-05-01T03:41:00.793Z,22.500000
2023-05-01T03:42:01.047Z,22.500000
2023-05-01T03:43:00.794Z,11.250000
2023-05-01T03:44:00.892Z,11.250000
2023-05-01T03:45:04.883Z,11.250000
2023-05-01T03:46:01.092Z,11.250000
2023-05-01T03:47:00.824Z,11.250000
2023-05-01T03:48:00.971Z,11.250000
2023-05-01T03:49:00.842Z,11.250000
2023-05-01T03:50:04.055Z,22.500000
2023-05-01T03:51:00.857Z,22.500000
2023-05-01T03:52:00.945Z,22.500000
2023-05-01T03:53:00.873Z,11.250000
2023-05-01T03:54:00.957Z,11.250000
2023-05-01T03:55:03.461Z,11.250000
2023-05-01T03:56:00.962Z,11.250000
2023-05-01T03:57:00.910Z,11.250000
2023-05-01T03:58:01.004Z,11.250000
2023-05-01T03:59:00.896Z,11.250000
2023-05-01T04:00:04.026Z,11.250000
2023-05-01T04:01:00.946Z,11.250000
2023-05-01T04:02:01.008Z,11.250000
2023-05-01T04:03:01.136Z,11.250000
2023-05-01T04:04:01.079Z,11.250000
2023-05-01T04:05:03.480Z,11.250000
2023-05-01T04:06:01.034Z,11.250000
2023-05-01T04:07:00.934Z,11.250000
2023-05-01T04:08:01.010Z,22.500000
2023-05-01T04:09:00.949Z,22.500000
2023-05-01T04:10:03.954Z,22.500000
2023-05-01T04:11:00.949Z,22.500000
2023-05-01T04:12:02.083Z,22.500000
2023-05-01T04:13:00.975Z,11.250000
2023-05-01T04:14:01.078Z,11.250000
2023-05-01T04:15:03.394Z,11.250000
2023-05-01T04:16:01.147Z,11.250000
2023-05-01T04:17:00.981Z,11.250000
2023-05-01T04:18:01.131Z,11.250000
2023-05-01T04:19:01.010Z,11.250000
2023-05-01T04:20:04.263Z,11.250000
2023-05-01T04:21:01.029Z,11.250000
2023-05-01T04:22:01.265Z,11.250000
2023-05-01T04:23:01.030Z,11.250000
2023-05-01T04:24:01.106Z,11.250000
2023-05-01T04:25:04.407Z,11.250000
2023-05-01T04:26:01.113Z,11.250000
2023-05-01T04:27:01.067Z,11.250000
2023-05-01T04:28:01.154Z,11.250000
2023-05-01T04:29:01.058Z,11.250000
2023-05-01T04:30:04.113Z,11.250000
2023-05-01T04:31:01.141Z,11.250000
2023-05-01T04:32:01.235Z,11.250000
2023-05-01T04:33:01.157Z,11.250000
2023-05-01T04:34:01.206Z,11.250000
2023-05-01T04:35:04.235Z,22.500000
2023-05-01T04:36:01.197Z,22.500000
2023-05-01T04:37:01.122Z,22.500000
2023-05-01T04:38:01.223Z,22.500000
2023-05-01T04:39:01.128Z,22.500000
2023-05-01T04:40:04.279Z,22.500000
2023-05-01T04:41:01.140Z,22.500000
2023-05-01T04:42:01.251Z,22.500000
2023-05-01T04:43:01.165Z,11.250000
2023-05-01T04:44:01.240Z,11.250000
2023-05-01T04:45:03.671Z,11.250000
2023-05-01T04:46:00.403Z,11.250000
2023-05-01T04:47:00.232Z,11.250000
2023-05-01T04:48:01.435Z,11.250000
2023-05-01T04:49:00.188Z,11.250000
2023-05-01T04:50:03.122Z,11.250000
2023-05-01T04:51:00.233Z,11.250000
2023-05-01T04:52:00.429Z,11.250000
2023-05-01T04:53:00.206Z,11.250000
2023-05-01T04:54:00.300Z,22.500000
2023-05-01T04:55:02.657Z,22.500000
2023-05-01T04:56:00.294Z,11.250000
2023-05-01T04:57:00.234Z,11.250000
2023-05-01T04:58:00.325Z,11.250000
2023-05-01T04:59:00.236Z,11.250000
2023-05-01T05:00:04.067Z,11.250000
2023-05-01T05:01:00.290Z,11.250000
2023-05-01T05:02:00.403Z,11.250000
2023-05-01T05:03:00.398Z,11.250000
2023-05-01T05:04:00.686Z,11.250000
2023-05-01T05:05:03.217Z,11.250000
2023-05-01T05:06:00.456Z,22.500000
2023-05-01T05:07:00.312Z,22.500000
2023-05-01T05:08:00.413Z,11.250000
2023-05-01T05:09:00.345Z,11.250000
2023-05-01T05:10:04.177Z,11.250000
2023-05-01T05:11:00.394Z,11.250000
2023-05-01T05:12:00.449Z,11.250000
2023-05-01T05:13:00.377Z,11.250000
2023-05-01T05:14:00.460Z,11.250000
2023-05-01T05:15:02.775Z,11.250000
2023-05-01T05:16:00.719Z,11.250000
2023-05-01T05:17:00.426Z,11.250000
2023-05-01T05:18:00.639Z,11.250000
2023-05-01T05:19:00.419Z,11.250000
2023-05-01T05:20:05.330Z,11.250000
2023-05-01T05:21:00.436Z,11.250000
2023-05-01T05:22:00.529Z,11.250000
2023-05-01T05:23:00.442Z,11.250000
2023-05-01T05:24:00.555Z,11.250000
2023-05-01T05:25:02.824Z,11.250000
2023-05-01T05:26:00.509Z,0.000000
2023-05-01T05:27:00.463Z,0.000000
2023-05-01T05:28:00.548Z,0.000000
2023-05-01T05:29:00.459Z,11.250000
2023-05-01T05:30:03.540Z,11.250000
2023-05-01T05:31:00.471Z,11.250000
2023-05-01T05:32:00.612Z,11.250000
2023-05-01T05:33:00.552Z,11.250000
2023-05-01T05:34:00.586Z,11.250000
2023-05-01T05:35:04.456Z,11.250000
2023-05-01T05:36:00.640Z,11.250000
2023-05-01T05:37:00.524Z,11.250000
2023-05-01T05:38:00.608Z,11.250000
2023-05-01T05:39:00.530Z,11.250000
2023-05-01T05:40:03.477Z,11.250000
2023-05-01T05:41:00.577Z,11.250000
2023-05-01T05:42:00.636Z,11.250000
2023-05-01T05:43:00.574Z,11.250000
2023-05-01T05:44:00.633Z,11.250000
2023-05-01T05:45:03.371Z,11.250000
2023-05-01T05:46:00.881Z,11.250000
2023-05-01T05:47:00.579Z,22.500000
2023-05-01T05:48:00.714Z,22.500000
2023-05-01T05:49:00.646Z,11.250000
2023-05-01T05:50:03.501Z,11.250000
2023-05-01T05:51:00.626Z,11.250000
2023-05-01T05:52:00.692Z,11.250000
2023-05-01T05:53:00.604Z,11.250000
2023-05-01T05:54:00.711Z,22.500000
2023-05-01T05:55:03.245Z,22.500000
2023-05-01T05:56:00.691Z,22.500000
2023-05-01T05:57:00.643Z,22.500000
2023-05-01T05:58:00.739Z,22.500000
2023-05-01T05:59:00.634Z,22.500000
2023-05-01T06:00:04.076Z,22.500000
2023-05-01T06:01:00.655Z,22.500000
2023-05-01T06:02:00.879Z,11.250000
2023-05-01T06:03:00.849Z,11.250000
2023-05-01T06:04:00.770Z,11.250000
2023-05-01T06:05:03.217Z,11.250000
2023-05-01T06:06:01.051Z,11.250000
2023-05-01T06:07:00.856Z,22.500000
2023-05-01T06:08:00.790Z,22.500000
2023-05-01T06:09:00.748Z,22.500000
2023-05-01T06:10:05.313Z,22.500000
2023-05-01T06:11:00.746Z,22.500000
2023-05-01T06:12:00.801Z,22.500000
2023-05-01T06:13:10.805Z,22.500000
2023-05-01T06:14:00.821Z,22.500000
2023-05-01T06:15:03.824Z,22.500000
2023-05-01T06:16:00.951Z,22.500000
2023-05-01T06:17:00.778Z,22.500000
2023-05-01T06:18:00.895Z,22.500000
2023-05-01T06:19:00.795Z,11.250000
2023-05-01T06:20:03.979Z,11.250000
2023-05-01T06:21:00.818Z,11.250000
2023-05-01T06:22:01.059Z,11.250000
2023-05-01T06:23:00.825Z,11.250000
2023-05-01T06:24:00.926Z,11.250000
2023-05-01T06:25:03.480Z,11.250000
2023-05-01T06:26:00.906Z,11.250000
2023-05-01T06:27:01.596Z,11.250000
2023-05-01T06:28:01.251Z,11.250000
2023-05-01T06:29:00.862Z,11.250000
2023-05-01T06:30:03.888Z,11.250000
2023-05-01T06:31:00.897Z,11.250000
2023-05-01T06:32:00.970Z,11.250000
2023-05-01T06:33:00.924Z,11.250000
2023-05-01T06:34:00.953Z,11.250000
2023-05-01T06:35:03.531Z,11.250000
2023-05-01T06:36:00.984Z,11.250000
2023-05-01T06:37:00.891Z,11.250000
2023-05-01T06:38:00.992Z,11.250000
2023-05-01T06:39:00.918Z,11.250000
2023-05-01T06:40:05.676Z,11.250000
2023-05-01T06:41:00.907Z,11.250000
2023-05-01T06:42:01.004Z,22.500000
2023-05-01T06:43:00.911Z,22.500000
2023-05-01T06:44:00.983Z,22.500000
2023-05-01T06:45:03.229Z,22.500000
2023-05-01T06:46:01.215Z,22.500000
2023-05-01T06:47:00.949Z,22.500000
2023-05-01T06:48:01.103Z,22.500000
2023-05-01T06:49:00.959Z,11.250000
2023-05-01T06:50:05.543Z,11.250000
2023-05-01T06:51:00.999Z,11.250000
2023-05-01T06:52:01.233Z,11.250000
2023-05-01T06:53:01.000Z,11.250000
2023-05-01T06:54:01.110Z,11.250000
2023-05-01T06:55:03.647Z,22.500000
2023-05-01T06:56:01.058Z,22.500000
2023-05-01T06:57:01.015Z,22.500000
2023-05-01T06:58:04.812Z,22.500000
2023-05-01T06:59:01.023Z,22.500000
2023-05-01T07:00:05.356Z,11.250000
2023-05-01T07:01:01.115Z,11.250000
2023-05-01T07:02:01.209Z,11.250000
2023-05-01T07:03:01.086Z,11.250000
2023-05-01T07:04:01.186Z,11.250000
2023-05-01T07:05:03.673Z,11.250000
2023-05-01T07:06:01.226Z,11.250000
2023-05-01T07:07:01.081Z,11.250000
2023-05-01T07:08:02.096Z,11.250000
2023-05-01T07:09:01.140Z,11.250000
2023-05-01T07:10:04.898Z,33.750000
2023-05-01T07:11:01.134Z,33.750000
2023-05-01T07:12:01.193Z,22.500000
2023-05-01T07:13:01.122Z,22.500000
2023-05-01T07:14:01.234Z,22.500000
2023-05-01T07:15:03.578Z,22.500000
2023-05-01T07:16:01.242Z,22.500000
2023-05-01T07:17:01.461Z,22.500000
2023-05-01T07:18:01.285Z,22.500000
2023-05-01T07:19:01.154Z,22.500000
2023-05-01T07:20:04.323Z,22.500000
2023-05-01T07:21:01.217Z,22.500000
2023-05-01T07:22:01.265Z,22.500000
2023-05-01T07:23:00.189Z,22.500000
2023-05-01T07:24:00.268Z,22.500000
2023-05-01T07:25:02.541Z,22.500000
2023-05-01T07:26:00.292Z,22.500000
2023-05-01T07:27:00.232Z,22.500000
2023-05-01T07:28:00.425Z,22.500000
2023-05-01T07:29:00.207Z,22.500000
2023-05-01T07:30:03.434Z,22.500000
2023-05-01T07:31:00.223Z,33.750000
2023-05-01T07:32:00.323Z,33.750000
2023-05-01T07:33:00.288Z,22.500000
2023-05-01T07:34:00.335Z,22.500000
2023-05-01T07:35:04.486Z,33.750000
2023-05-01T07:36:00.345Z,33.750000
2023-05-01T07:37:00.267Z,33.750000
2023-05-01T07:38:00.323Z,22.500000
2023-05-01T07:39:00.265Z,22.500000
2023-05-01T07:40:03.636Z,33.750000
2023-05-01T07:41:00.295Z,33.750000
2023-05-01T07:42:00.422Z,33.750000
2023-05-01T07:43:00.300Z,11.250000
2023-05-01T07:44:00.374Z,11.250000
2023-05-01T07:45:02.837Z,22.500000
2023-05-01T07:46:00.661Z,22.500000
2023-05-01T07:47:00.315Z,22.500000
2023-05-01T07:48:00.424Z,33.750000
2023-05-01T07:49:00.315Z,33.750000
2023-05-01T07:50:03.130Z,33.750000
2023-05-01T07:51:00.348Z,22.500000
2023-05-01T07:52:00.422Z,22.500000
2023-05-01T07:53:00.340Z,22.500000
2023-05-01T07:54:00.422Z,22.500000
2023-05-01T07:55:02.982Z,22.500000
2023-05-01T07:56:00.436Z,22.500000
2023-05-01T07:57:00.385Z,22.500000
2023-05-01T07:58:00.659Z,22.500000
2023-05-01T07:59:00.385Z,22.500000
2023-05-01T08:00:04.920Z,22.500000
2023-05-01T08:01:00.394Z,22.500000
2023-05-01T08:02:00.559Z,22.500000
2023-05-01T08:03:00.553Z,22.500000
2023-05-01T08:04:00.701Z,22.500000
2023-05-01T08:05:03.902Z,33.750000
2023-05-01T08:06:00.569Z,33.750000
2023-05-01T08:07:00.428Z,33.750000
2023-05-01T08:08:00.517Z,33.750000
2023-05-01T08:09:00.446Z,33.750000
2023-05-01T08:10:03.644Z,22.500000
2023-05-01T08:11:00.455Z,22.500000
2023-05-01T08:12:00.551Z,22.500000
2023-05-01T08:13:00.465Z,22.500000
2023-05-01T08:14:00.556Z,22.500000
2023-05-01T08:15:03.530Z,22.500000
2023-05-01T08:16:00.650Z,22.500000
2023-05-01T08:17:00.496Z,22.500000
2023-05-01T08:18:00.646Z,11.250000
2023-05-01T08:19:00.495Z,11.250000
2023-05-01T08:20:04.315Z,11.250000
2023-05-01T08:21:00.544Z,22.500000
2023-05-01T08:22:00.659Z,22.500000
2023-05-01T08:23:00.525Z,22.500000
2023-05-01T08:24:00.624Z,22.500000
2023-05-01T08:25:03.143Z,22.500000
2023-05-01T08:26:00.597Z,33.750000
2023-05-01T08:27:00.547Z,33.750000
2023-05-01T08:28:00.633Z,22.500000
2023-05-01T08:29:00.563Z,22.500000
2023-05-01T08:30:04.206Z,22.500000
2023-05-01T08:31:00.598Z,22.500000
2023-05-01T08:32:01.044Z,22.500000
2023-05-01T08:33:00.626Z,22.500000
2023-05-01T08:34:00.824Z,22.500000
2023-05-01T08:35:02.983Z,22.500000
2023-05-01T08:36:00.678Z,22.500000
2023-05-01T08:37:00.614Z,22.500000
2023-05-01T08:38:00.680Z,22.500000
2023-05-01T08:39:00.661Z,22.500000
2023-05-01T08:40:03.634Z,22.500000
2023-05-01T08:41:00.652Z,22.500000
2023-05-01T08:42:00.715Z,22.500000
2023-05-01T08:43:00.653Z,22.500000
2023-05-01T08:44:00.743Z,33.750000
2023-05-01T08:45:03.261Z,33.750000
2023-05-01T08:46:00.916Z,11.250000
2023-05-01T08:47:00.750Z,11.250000
2023-05-01T08:48:00.845Z,11.250000
2023-05-01T08:49:00.700Z,22.500000
2023-05-01T08:50:03.479Z,22.500000
2023-05-01T08:51:00.726Z,56.250000
2023-05-01T08:52:00.804Z,56.250000
2023-05-01T08:53:00.730Z,45.000000
2023-05-01T08:54:00.830Z,45.000000
2023-05-01T08:55:03.052Z,45.000000
2023-05-01T08:56:00.797Z,11.250000
2023-05-01T08:57:00.761Z,11.250000
2023-05-01T08:58:00.841Z,11.250000
2023-05-01T08:59:00.763Z,22.500000
2023-05-01T09:00:04.884Z,22.500000
2023-05-01T09:01:00.797Z,33.750000
2023-05-01T09:02:01.588Z,33.750000
2023-05-01T09:03:00.915Z,78.750000
2023-05-01T09:04:04.128Z,78.750000
2023-05-01T09:05:03.234Z,78.750000
2023-05-01T09:06:00.926Z,56.250000
2023-05-01T09:07:00.811Z,56.250000
2023-05-01T09:08:00.926Z,56.250000
2023-05-01T09:09:00.837Z,33.750000
2023-05-01T09:10:06.454Z,33.750000
2023-05-01T09:11:00.840Z,33.750000
2023-05-01T09:12:02.840Z,33.750000
2023-05-01T09:13:00.893Z,33.750000
2023-05-01T09:14:00.982Z,22.500000
2023-05-01T09:15:03.354Z,22.500000
2023-05-01T09:16:01.619Z,22.500000
2023-05-01T09:17:00.875Z,67.500000
2023-05-01T09:18:03.456Z,67.500000
2023-05-01T09:19:00.900Z,56.250000
2023-05-01T09:20:04.318Z,56.250000
2023-05-01T09:21:00.925Z,56.250000
2023-05-01T09:22:01.038Z,33.750000
2023-05-01T09:23:00.922Z,33.750000
2023-05-01T09:24:01.061Z,11.250000
2023-05-01T09:25:03.341Z,11.250000
2023-05-01T09:26:01.014Z,11.250000
2023-05-01T09:27:00.961Z,33.750000
2023-05-01T09:28:01.036Z,33.750000
2023-05-01T09:29:00.965Z,33.750000
2023-05-01T09:30:04.037Z,33.750000
2023-05-01T09:31:00.999Z,33.750000
2023-05-01T09:32:01.094Z,45.000000
2023-05-01T09:33:01.025Z,45.000000
2023-05-01T09:34:01.103Z,56.250000
2023-05-01T09:35:03.636Z,56.250000
2023-05-01T09:36:01.080Z,56.250000
2023-05-01T09:37:01.001Z,56.250000
2023-05-01T09:38:01.098Z,56.250000
2023-05-01T09:39:01.051Z,45.000000
2023-05-01T09:40:04.669Z,45.000000
2023-05-01T09:41:01.027Z,45.000000
2023-05-01T09:42:01.151Z,11.250000
2023-05-01T09:43:01.052Z,11.250000
2023-05-01T09:44:01.107Z,11.250000
2023-05-01T09:45:03.620Z,11.250000
2023-05-01T09:46:01.164Z,11.250000
2023-05-01T09:47:01.073Z,11.250000
2023-05-01T09:48:02.286Z,11.250000
2023-05-01T09:49:01.083Z,56.250000
2023-05-01T09:50:04.483Z,56.250000
2023-05-01T09:51:01.141Z,56.250000
2023-05-01T09:52:01.174Z,67.500000
2023-05-01T09:53:01.108Z,67.500000
2023-05-01T09:54:01.209Z,45.000000
2023-05-01T09:55:04.488Z,45.000000
2023-05-01T09:56:01.199Z,56.250000
2023-05-01T09:57:01.168Z,56.250000
2023-05-01T09:58:01.227Z,56.250000
2023-05-01T09:59:01.138Z,22.500000
2023-05-01T10:00:04.307Z,22.500000
2023-05-01T10:01:00.240Z,22.500000
2023-05-01T10:02:00.421Z,45.000000
2023-05-01T10:03:00.384Z,45.000000
2023-05-01T10:04:00.365Z,78.750000
2023-05-01T10:05:02.752Z,78.750000
2023-05-01T10:06:00.383Z,45.000000
2023-05-01T10:07:00.465Z,45.000000
2023-05-01T10:08:00.319Z,45.000000
2023-05-01T10:09:00.252Z,11.250000
2023-05-01T10:10:03.701Z,11.250000
2023-05-01T10:11:00.263Z,11.250000
2023-05-01T10:12:00.362Z,45.000000
2023-05-01T10:13:00.268Z,45.000000
2023-05-01T10:14:00.347Z,45.000000
2023-05-01T10:15:13.799Z,45.000000
2023-05-01T10:16:00.407Z,45.000000
2023-05-01T10:17:00.365Z,11.250000
2023-05-01T10:18:00.484Z,11.250000
2023-05-01T10:19:01.150Z,22.500000
2023-05-01T10:20:04.340Z,22.500000
2023-05-01T10:21:00.343Z,22.500000
2023-05-01T10:22:00.560Z,0.000000
2023-05-01T10:23:00.325Z,0.000000
2023-05-01T10:24:00.406Z,0.000000
2023-05-01T10:25:02.818Z,33.750000
2023-05-01T10:26:01.938Z,33.750000
2023-05-01T10:27:00.354Z,33.750000
2023-05-01T10:28:00.604Z,33.750000
2023-05-01T10:29:00.353Z,11.250000
2023-05-01T10:30:03.469Z,11.250000
2023-05-01T10:31:00.447Z,11.250000
2023-05-01T10:32:00.602Z,78.750000
2023-05-01T10:33:00.439Z,78.750000
2023-05-01T10:34:00.657Z,78.750000
2023-05-01T10:35:02.962Z,22.500000
2023-05-01T10:36:00.506Z,22.500000
2023-05-01T10:37:00.400Z,22.500000
2023-05-01T10:38:00.522Z,11.250000
2023-05-01T10:39:00.460Z,11.250000
2023-05-01T10:40:03.508Z,33.750000
2023-05-01T10:41:00.433Z,33.750000
2023-05-01T10:42:00.523Z,11.250000
2023-05-01T10:43:00.457Z,11.250000
2023-05-01T10:44:00.523Z,11.250000
2023-05-01T10:45:02.927Z,45.000000
2023-05-01T10:46:00.639Z,45.000000
2023-05-01T10:47:00.471Z,45.000000
2023-05-01T10:48:00.613Z,45.000000
2023-05-01T10:49:00.481Z,45.000000
2023-05-01T10:50:04.367Z,56.250000
2023-05-01T10:51:00.504Z,56.250000
2023-05-01T10:52:00.601Z,78.750000
2023-05-01T10:53:00.512Z,78.750000
2023-05-01T10:54:00.630Z,78.750000
2023-05-01T10:55:02.950Z,56.250000
2023-05-01T10:56:00.598Z,56.250000
2023-05-01T10:57:00.559Z,56.250000
2023-05-01T10:58:00.622Z,33.750000
2023-05-01T10:59:00.551Z,33.750000
2023-05-01T11:00:03.930Z,33.750000
2023-05-01T11:01:00.579Z,33.750000
2023-05-01T11:02:00.721Z,33.750000
2023-05-01T11:03:00.613Z,56.250000
2023-05-01T11:04:00.676Z,56.250000
2023-05-01T11:05:03.152Z,56.250000
2023-05-01T11:06:01.174Z,56.250000
2023-05-01T11:07:00.685Z,22.500000
2023-05-01T11:08:00.680Z,22.500000
2023-05-01T11:09:00.617Z,22.500000
2023-05-01T11:10:03.942Z,56.250000
2023-05-01T11:11:00.632Z,56.250000
2023-05-01T11:12:00.725Z,56.250000
2023-05-01T11:13:00.633Z,56.250000
2023-05-01T11:14:00.722Z,56.250000
2023-05-01T11:15:03.212Z,56.250000
2023-05-01T11:16:00.742Z,56.250000
2023-05-01T11:17:00.661Z,22.500000
2023-05-01T11:18:00.806Z,22.500000
2023-05-01T11:19:00.669Z,22.500000
2023-05-01T11:20:04.344Z,56.250000
2023-05-01T11:21:00.687Z,56.250000
2023-05-01T11:22:00.923Z,56.250000
2023-05-01T11:23:00.698Z,56.250000
2023-05-01T11:24:00.801Z,56.250000